Terminal Aerodrome Forecast
Issued by NWS Pocatello, ID

Home | Current Version | Previous Version | Text Only | Print | Product List | Glossary On
Versions: 1 2 3 4 5 6 7 8 9 10 11 12
000
FTUS45 KPIH 170500
TAFIDA
TAF
KIDA 170520Z 1706/1806 02006KT P6SM BKN120
     FM171300 VRB05KT P6SM SCT130 SCT200
     FM171800 VRB04KT P6SM VCTS SCT090CB SCT130 BKN180
     FM180300 05006KT P6SM FEW100 SCT200=

USA.gov is the U.S. government's official web portal to all federal, state and local government web resources and services.